SAS7401 ENGM-LGSM
Flight info
| Callsign | SAS7401 |
|---|---|
| Flight time | N/A |
| Altitude | 31000 |
| Route | OKSAT L996 GETPA/N0461F350 L727 NEGIL DCT RUMAR/N0453F370 DCT KELEL DCT VERIG DCT OVDOT DCT NIKTI DCT MES L609 URNIL |
| Aircraft | B737/M-SDE2E3FGHIRWXY/LB1 |
Departure
| Time | N/A |
|---|---|
| Airport | Oslo-Gardermoen International Airport (ENGM) |
Arrival
| Time | 2026-05-04 11:38 |
|---|---|
| Airport | Samos Airport (LGSM) |
| Time | Latitude | Longitude | Altitude | Speed | Heading |
|---|---|---|---|---|---|
| 2026-05-04 09:25 | 51.95080 | 18.42595 | 38998 ft | 445 kts | 159° |
| 2026-05-04 09:25 | 51.92240 | 18.44597 | 38997 ft | 445 kts | 159° |
| 2026-05-04 09:26 | 51.87528 | 18.47912 | 39003 ft | 445 kts | 159° |
| 2026-05-04 09:26 | 51.81844 | 18.51904 | 39008 ft | 445 kts | 159° |
| 2026-05-04 09:27 | 51.76164 | 18.55879 | 39014 ft | 445 kts | 159° |
| 2026-05-04 09:27 | 51.70481 | 18.59843 | 39014 ft | 445 kts | 159° |
| 2026-05-04 09:28 | 51.64784 | 18.63808 | 39014 ft | 446 kts | 159° |
| 2026-05-04 09:28 | 51.59082 | 18.67766 | 39013 ft | 447 kts | 159° |
| 2026-05-04 09:29 | 51.53359 | 18.71726 | 39027 ft | 448 kts | 159° |
| 2026-05-04 09:29 | 51.47630 | 18.75679 | 39022 ft | 449 kts | 159° |
| 2026-05-04 09:30 | 51.41925 | 18.79609 | 39027 ft | 449 kts | 159° |
| 2026-05-04 09:30 | 51.36177 | 18.83555 | 39030 ft | 450 kts | 159° |
| 2026-05-04 09:31 | 51.30418 | 18.87499 | 39032 ft | 450 kts | 158° |
| 2026-05-04 09:31 | 51.24657 | 18.91433 | 39034 ft | 451 kts | 158° |
| 2026-05-04 09:32 | 51.18889 | 18.95360 | 39039 ft | 451 kts | 158° |
| 2026-05-04 09:34 | 50.95792 | 19.10982 | 39053 ft | 451 kts | 158° |
| 2026-05-04 09:34 | 50.90023 | 19.14858 | 39058 ft | 451 kts | 158° |
| 2026-05-04 09:35 | 50.84248 | 19.18728 | 39065 ft | 451 kts | 158° |
| 2026-05-04 09:35 | 50.78474 | 19.22586 | 39062 ft | 451 kts | 158° |
| 2026-05-04 09:37 | 50.55310 | 19.37956 | 39074 ft | 452 kts | 158° |
| 2026-05-04 09:38 | 50.49544 | 19.41760 | 39077 ft | 453 kts | 158° |
| 2026-05-04 09:38 | 50.43688 | 19.45611 | 39073 ft | 453 kts | 158° |
| 2026-05-04 09:39 | 50.37902 | 19.49405 | 39075 ft | 454 kts | 158° |
| 2026-05-04 09:39 | 50.32070 | 19.53217 | 39077 ft | 455 kts | 158° |
| 2026-05-04 09:40 | 50.26225 | 19.57028 | 39071 ft | 455 kts | 158° |
| 2026-05-04 09:40 | 50.20376 | 19.60835 | 39077 ft | 456 kts | 158° |
| 2026-05-04 09:42 | 49.96903 | 19.76002 | 39072 ft | 457 kts | 158° |
| 2026-05-04 09:43 | 49.91022 | 19.79779 | 39075 ft | 457 kts | 158° |
| 2026-05-04 09:43 | 49.85142 | 19.83542 | 39071 ft | 457 kts | 158° |
| 2026-05-04 09:44 | 49.79263 | 19.87296 | 39084 ft | 457 kts | 158° |
| 2026-05-04 09:46 | 49.55774 | 20.02197 | 39097 ft | 456 kts | 158° |
| 2026-05-04 09:46 | 49.49947 | 20.05870 | 39100 ft | 455 kts | 158° |
| 2026-05-04 09:47 | 49.44086 | 20.09555 | 39110 ft | 455 kts | 158° |
| 2026-05-04 09:49 | 49.20927 | 20.25301 | 39122 ft | 457 kts | 153° |
| 2026-05-04 09:51 | 49.00959 | 20.40425 | 39130 ft | 459 kts | 153° |
| 2026-05-04 09:51 | 48.95229 | 20.44703 | 39134 ft | 459 kts | 153° |
| 2026-05-04 09:52 | 48.89526 | 20.48952 | 39121 ft | 460 kts | 153° |
| 2026-05-04 09:52 | 48.83784 | 20.53221 | 39131 ft | 460 kts | 153° |
| 2026-05-04 09:53 | 48.78036 | 20.57481 | 39139 ft | 460 kts | 153° |
| 2026-05-04 09:53 | 48.72291 | 20.61730 | 39125 ft | 460 kts | 153° |
| 2026-05-04 09:54 | 48.66541 | 20.65972 | 39126 ft | 459 kts | 153° |
| 2026-05-04 09:54 | 48.60796 | 20.70199 | 39141 ft | 459 kts | 153° |
| 2026-05-04 09:55 | 48.55054 | 20.74413 | 39138 ft | 459 kts | 153° |
| 2026-05-04 09:55 | 48.49310 | 20.78618 | 39142 ft | 459 kts | 153° |
| 2026-05-04 09:56 | 48.43603 | 20.82788 | 39143 ft | 459 kts | 153° |
| 2026-05-04 09:56 | 48.37855 | 20.86972 | 39140 ft | 459 kts | 153° |
| 2026-05-04 09:57 | 48.32096 | 20.91155 | 39141 ft | 459 kts | 153° |
| 2026-05-04 09:57 | 48.26342 | 20.95325 | 39142 ft | 459 kts | 153° |
| 2026-05-04 09:58 | 48.20587 | 20.99484 | 39138 ft | 459 kts | 153° |
| 2026-05-04 09:58 | 48.14832 | 21.03635 | 39144 ft | 459 kts | 153° |
| 2026-05-04 10:00 | 47.91811 | 21.20131 | 39149 ft | 458 kts | 153° |
| 2026-05-04 10:04 | 47.51516 | 21.48615 | 39157 ft | 459 kts | 153° |
| 2026-05-04 10:04 | 47.45734 | 21.52663 | 39156 ft | 460 kts | 153° |
| 2026-05-04 10:05 | 47.39951 | 21.56702 | 39156 ft | 460 kts | 153° |
| 2026-05-04 10:05 | 47.34162 | 21.60736 | 39158 ft | 460 kts | 153° |
| 2026-05-04 10:06 | 47.28366 | 21.64764 | 39158 ft | 461 kts | 153° |
| 2026-05-04 10:06 | 47.22565 | 21.68787 | 39166 ft | 461 kts | 153° |
| 2026-05-04 10:08 | 47.01584 | 21.80334 | 39189 ft | 463 kts | 160° |
| 2026-05-04 10:08 | 46.95474 | 21.83314 | 39198 ft | 463 kts | 160° |
| 2026-05-04 10:09 | 46.89358 | 21.86331 | 39191 ft | 464 kts | 160° |
| 2026-05-04 10:09 | 46.83235 | 21.89360 | 39181 ft | 465 kts | 160° |
| 2026-05-04 10:10 | 46.77106 | 21.92385 | 39194 ft | 465 kts | 159° |
| 2026-05-04 10:10 | 46.70972 | 21.95400 | 39182 ft | 466 kts | 160° |
| 2026-05-04 10:11 | 46.64823 | 21.98416 | 39165 ft | 467 kts | 159° |
| 2026-05-04 10:11 | 46.58666 | 22.01429 | 39159 ft | 467 kts | 159° |
| 2026-05-04 10:12 | 46.52509 | 22.04435 | 39153 ft | 467 kts | 159° |
| 2026-05-04 10:12 | 46.46345 | 22.07435 | 39158 ft | 467 kts | 159° |
| 2026-05-04 10:13 | 46.40212 | 22.10414 | 39154 ft | 468 kts | 159° |
| 2026-05-04 10:13 | 46.34041 | 22.13404 | 39159 ft | 468 kts | 159° |
| 2026-05-04 10:14 | 46.27863 | 22.16390 | 39160 ft | 468 kts | 159° |
| 2026-05-04 10:16 | 46.03133 | 22.28276 | 39158 ft | 469 kts | 159° |
| 2026-05-04 10:16 | 45.96941 | 22.31236 | 39157 ft | 469 kts | 160° |
| 2026-05-04 10:17 | 45.90753 | 22.34183 | 39158 ft | 469 kts | 160° |
| 2026-05-04 10:19 | 45.66020 | 22.45902 | 39149 ft | 468 kts | 160° |
| 2026-05-04 10:19 | 45.59884 | 22.48794 | 39142 ft | 468 kts | 160° |
| 2026-05-04 10:20 | 45.54707 | 22.51227 | 39146 ft | 467 kts | 160° |
| 2026-05-04 10:20 | 45.48533 | 22.54123 | 39156 ft | 467 kts | 160° |
| 2026-05-04 10:21 | 45.42360 | 22.57012 | 39155 ft | 467 kts | 160° |
| 2026-05-04 10:21 | 45.36194 | 22.59891 | 39146 ft | 467 kts | 160° |
| 2026-05-04 10:22 | 45.26944 | 22.64197 | 39142 ft | 466 kts | 160° |
| 2026-05-04 10:23 | 45.20778 | 22.67061 | 39149 ft | 466 kts | 160° |
| 2026-05-04 10:25 | 44.96152 | 22.78428 | 39150 ft | 465 kts | 160° |
| 2026-05-04 10:25 | 44.90040 | 22.81231 | 39135 ft | 465 kts | 160° |
| 2026-05-04 10:26 | 44.83884 | 22.84053 | 39138 ft | 465 kts | 160° |
| 2026-05-04 10:26 | 44.77726 | 22.86866 | 39140 ft | 466 kts | 160° |
| 2026-05-04 10:27 | 44.71560 | 22.89679 | 39136 ft | 466 kts | 160° |
| 2026-05-04 10:27 | 44.65398 | 22.92484 | 39136 ft | 466 kts | 160° |
| 2026-05-04 10:28 | 44.59223 | 22.95287 | 39125 ft | 466 kts | 160° |
| 2026-05-04 10:28 | 44.53051 | 22.98079 | 39134 ft | 466 kts | 161° |
| 2026-05-04 10:29 | 44.46821 | 23.00646 | 39133 ft | 467 kts | 162° |
| 2026-05-04 10:29 | 44.40568 | 23.03098 | 39123 ft | 467 kts | 162° |
| 2026-05-04 10:30 | 44.34361 | 23.05544 | 39131 ft | 466 kts | 162° |
| 2026-05-04 10:30 | 44.28132 | 23.08020 | 39124 ft | 465 kts | 162° |
| 2026-05-04 10:31 | 44.21910 | 23.10500 | 39120 ft | 465 kts | 162° |
| 2026-05-04 10:32 | 44.00123 | 23.19142 | 39128 ft | 465 kts | 162° |
| 2026-05-04 10:33 | 43.93896 | 23.21601 | 39121 ft | 466 kts | 162° |
| 2026-05-04 10:33 | 43.87665 | 23.24056 | 39129 ft | 466 kts | 162° |
| 2026-05-04 10:34 | 43.81417 | 23.26511 | 39130 ft | 467 kts | 162° |
| 2026-05-04 10:34 | 43.75164 | 23.28961 | 39142 ft | 467 kts | 162° |
| 2026-05-04 10:35 | 43.68951 | 23.31393 | 39139 ft | 468 kts | 162° |
| 2026-05-04 10:35 | 43.62683 | 23.33840 | 39137 ft | 468 kts | 162° |
| 2026-05-04 10:36 | 43.56412 | 23.36281 | 39136 ft | 469 kts | 162° |
| 2026-05-04 10:36 | 43.50134 | 23.38722 | 39146 ft | 469 kts | 162° |
| 2026-05-04 10:37 | 43.43840 | 23.41165 | 39130 ft | 469 kts | 162° |
| 2026-05-04 10:37 | 43.37558 | 23.43592 | 39128 ft | 470 kts | 162° |
| 2026-05-04 10:39 | 43.15533 | 23.52077 | 39152 ft | 471 kts | 162° |
| 2026-05-04 10:40 | 43.09220 | 23.54496 | 39145 ft | 471 kts | 162° |
| 2026-05-04 10:40 | 43.02907 | 23.56909 | 39151 ft | 471 kts | 162° |
| 2026-05-04 10:41 | 42.96640 | 23.59300 | 39146 ft | 471 kts | 162° |
| 2026-05-04 10:41 | 42.90314 | 23.61709 | 39149 ft | 472 kts | 162° |
| 2026-05-04 10:42 | 42.83988 | 23.64114 | 39147 ft | 472 kts | 163° |
| 2026-05-04 10:42 | 42.77653 | 23.66517 | 39151 ft | 473 kts | 163° |
| 2026-05-04 10:43 | 42.71318 | 23.68914 | 39161 ft | 473 kts | 163° |
| 2026-05-04 10:45 | 42.45878 | 23.78488 | 39153 ft | 475 kts | 163° |
| 2026-05-04 10:45 | 42.39543 | 23.80858 | 39148 ft | 476 kts | 163° |
| 2026-05-04 10:46 | 42.33161 | 23.83241 | 39139 ft | 476 kts | 163° |
| 2026-05-04 10:46 | 42.26789 | 23.85623 | 39139 ft | 475 kts | 163° |
| 2026-05-04 10:47 | 42.20408 | 23.87999 | 39129 ft | 476 kts | 163° |
| 2026-05-04 10:47 | 42.14008 | 23.90373 | 39132 ft | 477 kts | 163° |
| 2026-05-04 10:49 | 41.88427 | 23.99823 | 39114 ft | 476 kts | 163° |
| 2026-05-04 10:50 | 41.82050 | 24.02165 | 39119 ft | 475 kts | 163° |
| 2026-05-04 10:52 | 41.56531 | 24.11495 | 39127 ft | 475 kts | 163° |
| 2026-05-04 10:52 | 41.50348 | 24.14396 | 39135 ft | 474 kts | 155° |
| 2026-05-04 10:54 | 41.26115 | 24.28393 | 39109 ft | 475 kts | 155° |
| 2026-05-04 10:56 | 41.01763 | 24.42097 | 39106 ft | 476 kts | 156° |
| 2026-05-04 10:57 | 40.95657 | 24.45521 | 39104 ft | 477 kts | 156° |
| 2026-05-04 10:57 | 40.89545 | 24.48940 | 39098 ft | 477 kts | 156° |
| 2026-05-04 10:58 | 40.83432 | 24.52351 | 39102 ft | 477 kts | 156° |
| 2026-05-04 10:58 | 40.77366 | 24.55730 | 39100 ft | 477 kts | 156° |
| 2026-05-04 10:59 | 40.71210 | 24.59151 | 39109 ft | 477 kts | 156° |
| 2026-05-04 10:59 | 40.65090 | 24.62547 | 39108 ft | 477 kts | 156° |
| 2026-05-04 11:00 | 40.58963 | 24.65941 | 39102 ft | 478 kts | 156° |
| 2026-05-04 11:02 | 40.35443 | 24.82025 | 39112 ft | 478 kts | 151° |
| 2026-05-04 11:05 | 39.91331 | 25.12544 | 39137 ft | 480 kts | 152° |
| 2026-05-04 11:06 | 39.85417 | 25.16600 | 39125 ft | 481 kts | 152° |
| 2026-05-04 11:06 | 39.79496 | 25.20655 | 39130 ft | 482 kts | 152° |
| 2026-05-04 11:10 | 39.37890 | 25.48920 | 39125 ft | 482 kts | 152° |
| 2026-05-04 11:12 | 39.15116 | 25.64233 | 39123 ft | 482 kts | 153° |
| 2026-05-04 11:12 | 39.08203 | 25.68857 | 39120 ft | 482 kts | 153° |
| 2026-05-04 11:13 | 39.02258 | 25.72828 | 39120 ft | 481 kts | 153° |
| 2026-05-04 11:13 | 38.99282 | 25.74813 | 38681 ft | 482 kts | 153° |
| 2026-05-04 11:13 | 38.97271 | 25.76152 | 38316 ft | 481 kts | 153° |
| 2026-05-04 11:14 | 38.94307 | 25.78126 | 37741 ft | 478 kts | 153° |
| 2026-05-04 11:14 | 38.91353 | 25.80088 | 37112 ft | 477 kts | 153° |
| 2026-05-04 11:14 | 38.88410 | 25.82042 | 36479 ft | 476 kts | 152° |
| 2026-05-04 11:16 | 38.67925 | 25.95603 | 31530 ft | 466 kts | 151° |
| 2026-05-04 11:16 | 38.65063 | 25.97489 | 30959 ft | 461 kts | 151° |
| 2026-05-04 11:16 | 38.62231 | 25.99355 | 30396 ft | 455 kts | 150° |
| 2026-05-04 11:17 | 38.59435 | 26.01196 | 29834 ft | 449 kts | 150° |
| 2026-05-04 11:17 | 38.56676 | 26.03010 | 29276 ft | 444 kts | 150° |
| 2026-05-04 11:19 | 38.38170 | 26.15143 | 25341 ft | 413 kts | 152° |
| 2026-05-04 11:19 | 38.35625 | 26.16806 | 24799 ft | 408 kts | 152° |
| 2026-05-04 11:19 | 38.33107 | 26.18451 | 24254 ft | 405 kts | 153° |
| 2026-05-04 11:19 | 38.30619 | 26.20074 | 23712 ft | 401 kts | 153° |
| 2026-05-04 11:20 | 38.28138 | 26.21692 | 23168 ft | 398 kts | 153° |
| 2026-05-04 11:20 | 38.25681 | 26.23293 | 22624 ft | 395 kts | 153° |
| 2026-05-04 11:20 | 38.23243 | 26.24880 | 22086 ft | 392 kts | 153° |
| 2026-05-04 11:20 | 38.20857 | 26.26431 | 21555 ft | 390 kts | 153° |
| 2026-05-04 11:22 | 38.04266 | 26.37189 | 17797 ft | 376 kts | 152° |
| 2026-05-04 11:22 | 38.01939 | 26.38693 | 17263 ft | 374 kts | 152° |
| 2026-05-04 11:23 | 37.99626 | 26.40188 | 16745 ft | 373 kts | 152° |
| 2026-05-04 11:23 | 37.97319 | 26.41678 | 16203 ft | 371 kts | 152° |
| 2026-05-04 11:24 | 37.83711 | 26.50442 | 13019 ft | 360 kts | 152° |
| 2026-05-04 11:25 | 37.81477 | 26.51878 | 12481 ft | 359 kts | 151° |
| 2026-05-04 11:25 | 37.79250 | 26.53308 | 11877 ft | 359 kts | 151° |
| 2026-05-04 11:25 | 37.77033 | 26.54731 | 11345 ft | 357 kts | 151° |
| 2026-05-04 11:26 | 37.72635 | 26.57549 | 10443 ft | 348 kts | 151° |
| 2026-05-04 11:27 | 37.58915 | 26.66323 | 8500 ft | 303 kts | 150° |
| 2026-05-04 11:28 | 37.57046 | 26.67517 | 8127 ft | 301 kts | 150° |
| 2026-05-04 11:28 | 37.55183 | 26.68705 | 7757 ft | 299 kts | 151° |
| 2026-05-04 11:28 | 37.53331 | 26.69884 | 7405 ft | 297 kts | 151° |
| 2026-05-04 11:28 | 37.51500 | 26.71049 | 7057 ft | 294 kts | 151° |
| 2026-05-04 11:29 | 37.49795 | 26.72401 | 6670 ft | 285 kts | 131° |
| 2026-05-04 11:29 | 37.48717 | 26.74384 | 6428 ft | 265 kts | 111° |
| 2026-05-04 11:29 | 37.48053 | 26.76434 | 6306 ft | 241 kts | 105° |
| 2026-05-04 11:29 | 37.47467 | 26.78320 | 5925 ft | 233 kts | 107° |
| 2026-05-04 11:31 | 37.47953 | 26.89171 | 4168 ft | 176 kts | 22° |
| 2026-05-04 11:33 | 37.55397 | 26.90052 | 2563 ft | 126 kts | 359° |
| 2026-05-04 11:33 | 37.56282 | 26.90095 | 2357 ft | 128 kts | 360° |
| 2026-05-04 11:33 | 37.57189 | 26.90141 | 2056 ft | 132 kts | 360° |
| 2026-05-04 11:34 | 37.58078 | 26.90187 | 1952 ft | 126 kts | 360° |
| 2026-05-04 11:34 | 37.58973 | 26.90231 | 1959 ft | 131 kts | 360° |
| 2026-05-04 11:34 | 37.59887 | 26.90278 | 1934 ft | 132 kts | 0° |
| 2026-05-04 11:34 | 37.60802 | 26.90323 | 1894 ft | 131 kts | 0° |
| 2026-05-04 11:35 | 37.61687 | 26.90289 | 1788 ft | 125 kts | 347° |
| 2026-05-04 11:35 | 37.62506 | 26.89996 | 1623 ft | 124 kts | 341° |
| 2026-05-04 11:35 | 37.63329 | 26.89585 | 1624 ft | 128 kts | 335° |
| 2026-05-04 11:35 | 37.64140 | 26.89099 | 1588 ft | 129 kts | 333° |
| 2026-05-04 11:36 | 37.64908 | 26.88614 | 1472 ft | 128 kts | 334° |
| 2026-05-04 11:36 | 37.65720 | 26.88128 | 1387 ft | 132 kts | 334° |
| 2026-05-04 11:36 | 37.66553 | 26.87634 | 1151 ft | 134 kts | 338° |
| 2026-05-04 11:36 | 37.67418 | 26.87322 | 979 ft | 128 kts | 353° |
| 2026-05-04 11:37 | 37.68304 | 26.87485 | 731 ft | 134 kts | 18° |
| 2026-05-04 11:37 | 37.69011 | 26.88242 | 535 ft | 138 kts | 68° |
| 2026-05-04 11:37 | 37.69029 | 26.89468 | 212 ft | 145 kts | 92° |
| 2026-05-04 11:37 | 37.68943 | 26.90748 | 33 ft | 139 kts | 94° |
| 2026-05-04 11:38 | 37.68889 | 26.91739 | 30 ft | 82 kts | 96° |
| 2026-05-04 11:38 | 37.68857 | 26.92186 | 32 ft | 20 kts | 93° |
| 2026-05-04 11:38 | 37.68829 | 26.92338 | 30 ft | 11 kts | 119° |
| 2026-05-04 11:38 | 37.68848 | 26.92356 | 31 ft | 1 kts | 302° |
| 2026-05-04 11:39 | 37.68853 | 26.92304 | 30 ft | 11 kts | 273° |
| 2026-05-04 11:39 | 37.68857 | 26.92209 | 32 ft | 11 kts | 274° |
| 2026-05-04 11:40 | 37.68954 | 26.91678 | 28 ft | 6 kts | 348° |
| 2026-05-04 11:41 | 37.68982 | 26.91645 | 29 ft | 6 kts | 288° |
| 2026-05-04 11:41 | 37.68993 | 26.91581 | 29 ft | 10 kts | 279° |
| 2026-05-04 11:41 | 37.69004 | 26.91490 | 29 ft | 10 kts | 271° |
| 2026-05-04 11:41 | 37.68989 | 26.91401 | 30 ft | 10 kts | 258° |
| 2026-05-04 11:42 | 37.68991 | 26.91357 | 30 ft | 0 kts | 281° |
| 2026-05-04 11:42 | 37.68995 | 26.91341 | 28 ft | 6 kts | 298° |
| 2026-05-04 11:42 | 37.69037 | 26.91332 | 29 ft | 6 kts | 6° |
| 2026-05-04 11:42 | 37.69063 | 26.91335 | 29 ft | 0 kts | 3° |